sensor_id;sensor_type;location;lat;lon;timestamp;temperature;humidity
16523;DHT22;19889;52.546;13.348;2023-07-24T00:01:28;22.60;99.90
16523;DHT22;19889;52.546;13.348;2023-07-24T00:03:55;22.50;99.90
16523;DHT22;19889;52.546;13.348;2023-07-24T00:06:33;22.60;99.90
16523;DHT22;19889;52.546;13.348;2023-07-24T00:09:01;22.50;99.90
16523;DHT22;19889;52.546;13.348;2023-07-24T00:11:29;22.50;99.90
16523;DHT22;19889;52.546;13.348;2023-07-24T00:13:56;22.50;99.90
16523;DHT22;19889;52.546;13.348;2023-07-24T00:16:23;22.50;99.90
16523;DHT22;19889;52.546;13.348;2023-07-24T00:18:50;22.50;99.90
16523;DHT22;19889;52.546;13.348;2023-07-24T00:21:18;22.50;99.90
16523;DHT22;19889;52.546;13.348;2023-07-24T00:23:45;22.50;99.90
16523;DHT22;19889;52.546;13.348;2023-07-24T00:26:12;22.50;99.90
16523;DHT22;19889;52.546;13.348;2023-07-24T00:28:40;22.50;99.90
16523;DHT22;19889;52.546;13.348;2023-07-24T00:31:07;22.50;99.90
16523;DHT22;19889;52.546;13.348;2023-07-24T00:33:35;22.50;99.90
16523;DHT22;19889;52.546;13.348;2023-07-24T00:36:04;22.50;99.90
16523;DHT22;19889;52.546;13.348;2023-07-24T00:38:31;22.50;99.90
16523;DHT22;19889;52.546;13.348;2023-07-24T00:41:17;22.50;99.90
16523;DHT22;19889;52.546;13.348;2023-07-24T00:43:46;22.50;99.90
16523;DHT22;19889;52.546;13.348;2023-07-24T00:46:13;22.50;99.90
16523;DHT22;19889;52.546;13.348;2023-07-24T00:48:41;22.40;99.90
16523;DHT22;19889;52.546;13.348;2023-07-24T00:51:09;22.40;99.90
16523;DHT22;19889;52.546;13.348;2023-07-24T00:53:37;22.40;99.90
16523;DHT22;19889;52.546;13.348;2023-07-24T00:56:07;22.50;99.90
16523;DHT22;19889;52.546;13.348;2023-07-24T00:58:55;22.40;99.90
16523;DHT22;19889;52.546;13.348;2023-07-24T01:01:23;22.40;99.90
16523;DHT22;19889;52.546;13.348;2023-07-24T01:09:45;22.40;99.90
16523;DHT22;19889;52.546;13.348;2023-07-24T01:12:18;22.40;99.90
16523;DHT22;19889;52.546;13.348;2023-07-24T01:14:52;22.40;99.90
16523;DHT22;19889;52.546;13.348;2023-07-24T01:17:24;22.40;99.90
16523;DHT22;19889;52.546;13.348;2023-07-24T01:19:55;22.40;99.90
16523;DHT22;19889;52.546;13.348;2023-07-24T01:22:52;22.40;99.90
16523;DHT22;19889;52.546;13.348;2023-07-24T01:25:33;22.40;99.90
16523;DHT22;19889;52.546;13.348;2023-07-24T01:28:08;22.40;99.90
16523;DHT22;19889;52.546;13.348;2023-07-24T01:30:36;22.40;99.90
16523;DHT22;19889;52.546;13.348;2023-07-24T01:33:03;22.40;99.90
16523;DHT22;19889;52.546;13.348;2023-07-24T01:35:32;22.40;99.90
16523;DHT22;19889;52.546;13.348;2023-07-24T01:38:00;22.40;99.90
16523;DHT22;19889;52.546;13.348;2023-07-24T01:40:30;22.40;99.90
16523;DHT22;19889;52.546;13.348;2023-07-24T01:42:58;22.40;99.90
16523;DHT22;19889;52.546;13.348;2023-07-24T01:45:28;22.40;99.90
16523;DHT22;19889;52.546;13.348;2023-07-24T01:47:55;22.40;99.90
16523;DHT22;19889;52.546;13.348;2023-07-24T01:50:22;22.30;99.90
16523;DHT22;19889;52.546;13.348;2023-07-24T01:52:50;22.30;99.90
16523;DHT22;19889;52.546;13.348;2023-07-24T01:55:17;22.30;99.90
16523;DHT22;19889;52.546;13.348;2023-07-24T01:57:44;22.30;99.90
16523;DHT22;19889;52.546;13.348;2023-07-24T02:00:12;22.30;99.90
16523;DHT22;19889;52.546;13.348;2023-07-24T02:02:41;22.30;99.90
16523;DHT22;19889;52.546;13.348;2023-07-24T02:05:09;22.30;99.90
16523;DHT22;19889;52.546;13.348;2023-07-24T02:07:36;22.30;99.90
16523;DHT22;19889;52.546;13.348;2023-07-24T02:10:05;22.30;99.90
16523;DHT22;19889;52.546;13.348;2023-07-24T02:12:32;22.30;99.90
16523;DHT22;19889;52.546;13.348;2023-07-24T02:15:04;22.30;99.90
16523;DHT22;19889;52.546;13.348;2023-07-24T02:17:58;22.30;99.90
16523;DHT22;19889;52.546;13.348;2023-07-24T02:20:26;22.30;99.90
16523;DHT22;19889;52.546;13.348;2023-07-24T02:22:53;22.30;99.90
16523;DHT22;19889;52.546;13.348;2023-07-24T02:25:21;22.30;99.90
16523;DHT22;19889;52.546;13.348;2023-07-24T02:27:48;22.30;99.90
16523;DHT22;19889;52.546;13.348;2023-07-24T02:30:16;22.30;99.90
16523;DHT22;19889;52.546;13.348;2023-07-24T02:32:44;22.30;99.90
16523;DHT22;19889;52.546;13.348;2023-07-24T02:35:12;22.30;99.90
16523;DHT22;19889;52.546;13.348;2023-07-24T02:37:40;22.30;99.90
16523;DHT22;19889;52.546;13.348;2023-07-24T02:40:11;22.30;99.90
16523;DHT22;19889;52.546;13.348;2023-07-24T02:42:39;22.30;99.90
16523;DHT22;19889;52.546;13.348;2023-07-24T02:45:08;22.30;99.90
16523;DHT22;19889;52.546;13.348;2023-07-24T02:47:37;22.30;99.90
16523;DHT22;19889;52.546;13.348;2023-07-24T02:50:06;22.30;99.90
16523;DHT22;19889;52.546;13.348;2023-07-24T02:52:35;22.30;99.90
16523;DHT22;19889;52.546;13.348;2023-07-24T02:55:03;22.30;99.90
16523;DHT22;19889;52.546;13.348;2023-07-24T02:57:30;22.30;99.90
16523;DHT22;19889;52.546;13.348;2023-07-24T02:59:58;22.30;99.90
16523;DHT22;19889;52.546;13.348;2023-07-24T03:02:25;22.30;99.90
16523;DHT22;19889;52.546;13.348;2023-07-24T03:04:52;22.30;99.90
16523;DHT22;19889;52.546;13.348;2023-07-24T03:07:20;22.30;99.90
16523;DHT22;19889;52.546;13.348;2023-07-24T03:09:50;22.20;99.90
16523;DHT22;19889;52.546;13.348;2023-07-24T03:12:18;22.30;99.90
16523;DHT22;19889;52.546;13.348;2023-07-24T03:14:46;22.20;99.90
16523;DHT22;19889;52.546;13.348;2023-07-24T03:17:13;22.20;99.90
16523;DHT22;19889;52.546;13.348;2023-07-24T03:19:41;22.30;99.90
16523;DHT22;19889;52.546;13.348;2023-07-24T03:22:08;22.20;99.90
16523;DHT22;19889;52.546;13.348;2023-07-24T03:24:36;22.20;99.90
16523;DHT22;19889;52.546;13.348;2023-07-24T03:27:04;22.30;99.90
16523;DHT22;19889;52.546;13.348;2023-07-24T03:29:32;22.20;99.90
16523;DHT22;19889;52.546;13.348;2023-07-24T03:31:59;22.20;99.90
16523;DHT22;19889;52.546;13.348;2023-07-24T03:34:27;22.20;99.90
16523;DHT22;19889;52.546;13.348;2023-07-24T03:36:54;22.20;99.90
16523;DHT22;19889;52.546;13.348;2023-07-24T03:39:21;22.20;99.90
16523;DHT22;19889;52.546;13.348;2023-07-24T03:41:48;22.20;99.90
16523;DHT22;19889;52.546;13.348;2023-07-24T03:44:17;22.30;99.90
16523;DHT22;19889;52.546;13.348;2023-07-24T03:46:46;22.20;99.90
16523;DHT22;19889;52.546;13.348;2023-07-24T03:49:13;22.20;99.90
16523;DHT22;19889;52.546;13.348;2023-07-24T03:51:41;22.20;99.90
16523;DHT22;19889;52.546;13.348;2023-07-24T03:54:09;22.20;99.90
16523;DHT22;19889;52.546;13.348;2023-07-24T03:56:37;22.10;99.90
16523;DHT22;19889;52.546;13.348;2023-07-24T03:59:05;22.10;99.90
16523;DHT22;19889;52.546;13.348;2023-07-24T04:01:34;22.10;99.90
16523;DHT22;19889;52.546;13.348;2023-07-24T04:04:02;22.10;99.90
16523;DHT22;19889;52.546;13.348;2023-07-24T04:06:29;22.10;99.90
16523;DHT22;19889;52.546;13.348;2023-07-24T04:09:03;22.10;99.90
16523;DHT22;19889;52.546;13.348;2023-07-24T04:11:31;22.10;99.90
16523;DHT22;19889;52.546;13.348;2023-07-24T04:13:58;22.10;99.90
16523;DHT22;19889;52.546;13.348;2023-07-24T04:16:29;22.10;99.90
16523;DHT22;19889;52.546;13.348;2023-07-24T04:18:58;22.10;99.90
16523;DHT22;19889;52.546;13.348;2023-07-24T04:21:25;22.10;99.90
16523;DHT22;19889;52.546;13.348;2023-07-24T04:24:11;22.10;99.90
16523;DHT22;19889;52.546;13.348;2023-07-24T04:26:57;22.10;99.90
16523;DHT22;19889;52.546;13.348;2023-07-24T04:29:24;22.10;99.90
16523;DHT22;19889;52.546;13.348;2023-07-24T04:31:52;22.10;99.90
16523;DHT22;19889;52.546;13.348;2023-07-24T04:34:21;22.10;99.90
16523;DHT22;19889;52.546;13.348;2023-07-24T04:36:48;22.10;99.90
16523;DHT22;19889;52.546;13.348;2023-07-24T04:39:15;22.10;99.90
16523;DHT22;19889;52.546;13.348;2023-07-24T04:41:42;22.10;99.90
16523;DHT22;19889;52.546;13.348;2023-07-24T04:44:09;22.10;99.90
16523;DHT22;19889;52.546;13.348;2023-07-24T04:46:58;22.20;99.90
16523;DHT22;19889;52.546;13.348;2023-07-24T04:49:30;22.20;99.90
16523;DHT22;19889;52.546;13.348;2023-07-24T04:51:58;22.20;99.90
16523;DHT22;19889;52.546;13.348;2023-07-24T04:54:26;22.20;99.90
16523;DHT22;19889;52.546;13.348;2023-07-24T04:56:54;22.20;99.90
16523;DHT22;19889;52.546;13.348;2023-07-24T05:00:07;22.20;99.90
16523;DHT22;19889;52.546;13.348;2023-07-24T05:02:35;22.20;99.90
16523;DHT22;19889;52.546;13.348;2023-07-24T05:05:04;22.20;99.90
16523;DHT22;19889;52.546;13.348;2023-07-24T05:07:31;22.20;99.90
16523;DHT22;19889;52.546;13.348;2023-07-24T05:09:59;22.20;99.90
16523;DHT22;19889;52.546;13.348;2023-07-24T05:12:26;22.20;99.90
16523;DHT22;19889;52.546;13.348;2023-07-24T05:14:53;22.20;99.90
16523;DHT22;19889;52.546;13.348;2023-07-24T05:17:20;22.20;99.90
16523;DHT22;19889;52.546;13.348;2023-07-24T05:19:47;22.20;99.90
16523;DHT22;19889;52.546;13.348;2023-07-24T05:22:16;22.20;99.90
16523;DHT22;19889;52.546;13.348;2023-07-24T05:24:43;22.20;99.90
16523;DHT22;19889;52.546;13.348;2023-07-24T05:27:10;22.20;99.90
16523;DHT22;19889;52.546;13.348;2023-07-24T05:30:00;22.30;99.90
16523;DHT22;19889;52.546;13.348;2023-07-24T05:32:27;22.30;99.90
16523;DHT22;19889;52.546;13.348;2023-07-24T05:35:12;22.30;99.90
16523;DHT22;19889;52.546;13.348;2023-07-24T05:37:40;22.40;99.90
16523;DHT22;19889;52.546;13.348;2023-07-24T05:40:08;22.40;99.90
16523;DHT22;19889;52.546;13.348;2023-07-24T05:42:35;22.40;99.90
16523;DHT22;19889;52.546;13.348;2023-07-24T05:45:08;22.40;99.90
16523;DHT22;19889;52.546;13.348;2023-07-24T05:47:35;22.50;99.90
16523;DHT22;19889;52.546;13.348;2023-07-24T05:50:02;22.50;99.90
16523;DHT22;19889;52.546;13.348;2023-07-24T05:52:29;22.50;99.90
16523;DHT22;19889;52.546;13.348;2023-07-24T05:54:58;22.50;99.90
16523;DHT22;19889;52.546;13.348;2023-07-24T05:57:25;22.60;99.90
16523;DHT22;19889;52.546;13.348;2023-07-24T05:59:53;22.60;99.90
16523;DHT22;19889;52.546;13.348;2023-07-24T06:02:21;22.60;99.90
16523;DHT22;19889;52.546;13.348;2023-07-24T06:04:49;22.60;99.90
16523;DHT22;19889;52.546;13.348;2023-07-24T06:07:16;22.60;99.90
16523;DHT22;19889;52.546;13.348;2023-07-24T06:09:43;22.60;99.90
16523;DHT22;19889;52.546;13.348;2023-07-24T06:12:12;22.60;99.90
16523;DHT22;19889;52.546;13.348;2023-07-24T06:14:39;22.60;99.90
16523;DHT22;19889;52.546;13.348;2023-07-24T06:17:06;23.00;99.90
16523;DHT22;19889;52.546;13.348;2023-07-24T06:19:34;22.60;99.90
16523;DHT22;19889;52.546;13.348;2023-07-24T06:22:01;22.60;99.90
16523;DHT22;19889;52.546;13.348;2023-07-24T06:24:29;22.60;99.90
16523;DHT22;19889;52.546;13.348;2023-07-24T06:26:56;22.60;99.90
16523;DHT22;19889;52.546;13.348;2023-07-24T06:29:25;22.60;99.90
16523;DHT22;19889;52.546;13.348;2023-07-24T06:31:53;22.60;99.90
16523;DHT22;19889;52.546;13.348;2023-07-24T06:34:20;22.60;99.90
16523;DHT22;19889;52.546;13.348;2023-07-24T06:36:47;22.60;99.90
16523;DHT22;19889;52.546;13.348;2023-07-24T06:39:14;22.60;99.90
16523;DHT22;19889;52.546;13.348;2023-07-24T06:41:42;22.60;99.90
16523;DHT22;19889;52.546;13.348;2023-07-24T06:44:09;22.60;99.90
16523;DHT22;19889;52.546;13.348;2023-07-24T06:46:38;22.70;99.90
16523;DHT22;19889;52.546;13.348;2023-07-24T06:49:05;22.60;99.90
16523;DHT22;19889;52.546;13.348;2023-07-24T06:51:32;22.70;99.90
16523;DHT22;19889;52.546;13.348;2023-07-24T06:53:59;22.70;99.90
16523;DHT22;19889;52.546;13.348;2023-07-24T06:56:26;22.80;99.90
16523;DHT22;19889;52.546;13.348;2023-07-24T06:58:53;22.80;99.90
16523;DHT22;19889;52.546;13.348;2023-07-24T07:01:21;22.80;99.90
16523;DHT22;19889;52.546;13.348;2023-07-24T07:03:49;22.80;99.90
16523;DHT22;19889;52.546;13.348;2023-07-24T07:06:16;22.80;99.90
16523;DHT22;19889;52.546;13.348;2023-07-24T07:08:43;22.80;99.90
16523;DHT22;19889;52.546;13.348;2023-07-24T07:11:11;22.90;99.90
16523;DHT22;19889;52.546;13.348;2023-07-24T07:13:38;22.90;99.90
16523;DHT22;19889;52.546;13.348;2023-07-24T07:16:05;22.90;99.90
16523;DHT22;19889;52.546;13.348;2023-07-24T07:18:32;22.90;99.90
16523;DHT22;19889;52.546;13.348;2023-07-24T07:21:01;23.00;99.90
16523;DHT22;19889;52.546;13.348;2023-07-24T07:23:28;23.00;99.90
16523;DHT22;19889;52.546;13.348;2023-07-24T07:25:55;23.00;99.90
16523;DHT22;19889;52.546;13.348;2023-07-24T07:28:22;23.00;99.90
16523;DHT22;19889;52.546;13.348;2023-07-24T07:30:49;23.10;99.90
16523;DHT22;19889;52.546;13.348;2023-07-24T07:33:16;23.10;99.90
16523;DHT22;19889;52.546;13.348;2023-07-24T07:35:43;23.10;99.90
16523;DHT22;19889;52.546;13.348;2023-07-24T07:38:12;23.10;99.90
16523;DHT22;19889;52.546;13.348;2023-07-24T07:40:39;23.20;99.90
16523;DHT22;19889;52.546;13.348;2023-07-24T07:43:06;23.20;99.90
16523;DHT22;19889;52.546;13.348;2023-07-24T07:45:35;23.20;99.90
16523;DHT22;19889;52.546;13.348;2023-07-24T07:48:02;23.20;99.90
16523;DHT22;19889;52.546;13.348;2023-07-24T07:50:30;23.30;99.90
16523;DHT22;19889;52.546;13.348;2023-07-24T07:52:58;23.30;99.90
16523;DHT22;19889;52.546;13.348;2023-07-24T07:55:26;23.30;99.90
16523;DHT22;19889;52.546;13.348;2023-07-24T07:57:53;23.30;99.90
16523;DHT22;19889;52.546;13.348;2023-07-24T08:00:20;23.40;99.90
16523;DHT22;19889;52.546;13.348;2023-07-24T08:02:48;23.40;99.90
16523;DHT22;19889;52.546;13.348;2023-07-24T08:05:15;23.40;99.90
16523;DHT22;19889;52.546;13.348;2023-07-24T08:07:43;23.40;99.90
16523;DHT22;19889;52.546;13.348;2023-07-24T08:10:10;23.40;99.90
16523;DHT22;19889;52.546;13.348;2023-07-24T08:12:42;23.50;99.90
16523;DHT22;19889;52.546;13.348;2023-07-24T08:15:10;23.60;99.90
16523;DHT22;19889;52.546;13.348;2023-07-24T08:17:38;23.70;99.90
16523;DHT22;19889;52.546;13.348;2023-07-24T08:20:06;23.70;99.90
16523;DHT22;19889;52.546;13.348;2023-07-24T08:22:33;23.70;99.90
16523;DHT22;19889;52.546;13.348;2023-07-24T08:25:00;23.70;99.90
16523;DHT22;19889;52.546;13.348;2023-07-24T08:27:28;23.80;99.90
16523;DHT22;19889;52.546;13.348;2023-07-24T08:29:57;23.90;99.90
16523;DHT22;19889;52.546;13.348;2023-07-24T08:32:24;23.90;99.90
16523;DHT22;19889;52.546;13.348;2023-07-24T08:34:54;23.90;99.90
16523;DHT22;19889;52.546;13.348;2023-07-24T08:37:21;23.90;99.90
16523;DHT22;19889;52.546;13.348;2023-07-24T08:39:49;24.00;99.90
16523;DHT22;19889;52.546;13.348;2023-07-24T08:42:16;24.00;99.90
16523;DHT22;19889;52.546;13.348;2023-07-24T08:44:43;24.10;99.90
16523;DHT22;19889;52.546;13.348;2023-07-24T08:47:14;24.10;99.90
16523;DHT22;19889;52.546;13.348;2023-07-24T08:49:42;24.00;99.90
16523;DHT22;19889;52.546;13.348;2023-07-24T08:52:11;24.10;99.90
16523;DHT22;19889;52.546;13.348;2023-07-24T08:54:39;24.10;99.90
16523;DHT22;19889;52.546;13.348;2023-07-24T08:57:07;24.10;99.90
16523;DHT22;19889;52.546;13.348;2023-07-24T08:59:34;24.10;99.90
16523;DHT22;19889;52.546;13.348;2023-07-24T09:02:02;24.10;99.90
16523;DHT22;19889;52.546;13.348;2023-07-24T09:04:30;24.20;99.90
16523;DHT22;19889;52.546;13.348;2023-07-24T09:06:57;24.20;99.90
16523;DHT22;19889;52.546;13.348;2023-07-24T09:09:29;24.20;99.90
16523;DHT22;19889;52.546;13.348;2023-07-24T09:11:57;24.20;99.90
16523;DHT22;19889;52.546;13.348;2023-07-24T09:14:27;24.30;99.90
16523;DHT22;19889;52.546;13.348;2023-07-24T09:17:04;24.40;99.90
16523;DHT22;19889;52.546;13.348;2023-07-24T09:19:33;24.50;99.90
16523;DHT22;19889;52.546;13.348;2023-07-24T09:22:11;24.50;99.90
16523;DHT22;19889;52.546;13.348;2023-07-24T09:24:49;24.60;99.90
16523;DHT22;19889;52.546;13.348;2023-07-24T09:27:16;24.70;99.90
16523;DHT22;19889;52.546;13.348;2023-07-24T09:29:44;24.70;99.90
16523;DHT22;19889;52.546;13.348;2023-07-24T09:32:19;24.70;99.90
16523;DHT22;19889;52.546;13.348;2023-07-24T09:34:48;24.80;99.90
16523;DHT22;19889;52.546;13.348;2023-07-24T09:37:24;24.80;99.90
16523;DHT22;19889;52.546;13.348;2023-07-24T09:39:56;24.80;99.90
16523;DHT22;19889;52.546;13.348;2023-07-24T09:42:30;24.80;99.90
16523;DHT22;19889;52.546;13.348;2023-07-24T09:44:58;24.80;99.90
16523;DHT22;19889;52.546;13.348;2023-07-24T09:47:25;24.90;99.90
16523;DHT22;19889;52.546;13.348;2023-07-24T09:49:54;24.90;99.90
16523;DHT22;19889;52.546;13.348;2023-07-24T09:52:23;24.90;99.90
16523;DHT22;19889;52.546;13.348;2023-07-24T09:54:57;24.90;99.90
16523;DHT22;19889;52.546;13.348;2023-07-24T09:57:26;25.00;99.90
16523;DHT22;19889;52.546;13.348;2023-07-24T09:59:54;25.00;99.90
16523;DHT22;19889;52.546;13.348;2023-07-24T10:02:23;25.00;99.90
16523;DHT22;19889;52.546;13.348;2023-07-24T10:04:50;25.00;99.90
16523;DHT22;19889;52.546;13.348;2023-07-24T10:07:20;25.00;99.90
16523;DHT22;19889;52.546;13.348;2023-07-24T10:10:21;25.00;99.90
16523;DHT22;19889;52.546;13.348;2023-07-24T10:12:49;25.00;99.90
16523;DHT22;19889;52.546;13.348;2023-07-24T10:15:17;25.00;99.90
16523;DHT22;19889;52.546;13.348;2023-07-24T10:17:45;25.10;99.90
16523;DHT22;19889;52.546;13.348;2023-07-24T10:20:12;25.10;99.90
16523;DHT22;19889;52.546;13.348;2023-07-24T10:22:42;25.10;99.90
16523;DHT22;19889;52.546;13.348;2023-07-24T10:25:10;25.10;99.90
16523;DHT22;19889;52.546;13.348;2023-07-24T10:27:41;25.20;99.90
16523;DHT22;19889;52.546;13.348;2023-07-24T10:30:09;25.20;99.90
16523;DHT22;19889;52.546;13.348;2023-07-24T10:32:45;25.20;99.90
16523;DHT22;19889;52.546;13.348;2023-07-24T10:35:13;25.20;99.90
16523;DHT22;19889;52.546;13.348;2023-07-24T10:37:41;25.20;99.90
16523;DHT22;19889;52.546;13.348;2023-07-24T10:40:19;25.20;99.90
16523;DHT22;19889;52.546;13.348;2023-07-24T10:42:46;25.30;99.80
16523;DHT22;19889;52.546;13.348;2023-07-24T10:45:13;25.30;99.60
16523;DHT22;19889;52.546;13.348;2023-07-24T10:47:41;25.30;99.90
16523;DHT22;19889;52.546;13.348;2023-07-24T10:50:08;25.40;99.50
16523;DHT22;19889;52.546;13.348;2023-07-24T10:52:35;25.40;99.50
16523;DHT22;19889;52.546;13.348;2023-07-24T10:55:06;25.50;99.30
16523;DHT22;19889;52.546;13.348;2023-07-24T10:57:33;25.50;99.10
16523;DHT22;19889;52.546;13.348;2023-07-24T11:00:00;25.60;99.10
16523;DHT22;19889;52.546;13.348;2023-07-24T11:02:28;25.60;98.80
16523;DHT22;19889;52.546;13.348;2023-07-24T11:04:58;25.60;98.60
16523;DHT22;19889;52.546;13.348;2023-07-24T11:07:25;25.70;98.50
16523;DHT22;19889;52.546;13.348;2023-07-24T11:09:58;25.70;98.50
16523;DHT22;19889;52.546;13.348;2023-07-24T11:12:27;25.70;98.40
16523;DHT22;19889;52.546;13.348;2023-07-24T11:14:57;25.80;97.90
16523;DHT22;19889;52.546;13.348;2023-07-24T11:17:33;25.80;97.70
16523;DHT22;19889;52.546;13.348;2023-07-24T11:20:06;25.80;97.40
16523;DHT22;19889;52.546;13.348;2023-07-24T11:22:34;25.80;97.20
16523;DHT22;19889;52.546;13.348;2023-07-24T11:25:01;25.80;97.20
16523;DHT22;19889;52.546;13.348;2023-07-24T11:27:31;25.80;97.10
16523;DHT22;19889;52.546;13.348;2023-07-24T11:29:59;25.80;97.00
16523;DHT22;19889;52.546;13.348;2023-07-24T11:32:27;25.80;97.00
16523;DHT22;19889;52.546;13.348;2023-07-24T11:34:54;25.80;96.80
16523;DHT22;19889;52.546;13.348;2023-07-24T11:37:21;25.80;96.60
16523;DHT22;19889;52.546;13.348;2023-07-24T11:39:56;25.90;96.20
16523;DHT22;19889;52.546;13.348;2023-07-24T11:42:25;25.90;96.00
16523;DHT22;19889;52.546;13.348;2023-07-24T11:44:54;26.00;96.10
16523;DHT22;19889;52.546;13.348;2023-07-24T11:47:21;26.00;96.00
16523;DHT22;19889;52.546;13.348;2023-07-24T11:49:58;26.10;96.10
16523;DHT22;19889;52.546;13.348;2023-07-24T11:52:26;26.10;95.60
16523;DHT22;19889;52.546;13.348;2023-07-24T11:54:56;26.10;95.70
16523;DHT22;19889;52.546;13.348;2023-07-24T11:57:57;26.10;95.70
16523;DHT22;19889;52.546;13.348;2023-07-24T12:00:26;26.10;95.60
16523;DHT22;19889;52.546;13.348;2023-07-24T12:02:58;26.10;95.60
16523;DHT22;19889;52.546;13.348;2023-07-24T12:05:25;26.10;95.50
16523;DHT22;19889;52.546;13.348;2023-07-24T12:07:54;26.10;95.40
16523;DHT22;19889;52.546;13.348;2023-07-24T12:10:25;26.10;95.30
16523;DHT22;19889;52.546;13.348;2023-07-24T12:12:55;26.00;95.50
16523;DHT22;19889;52.546;13.348;2023-07-24T12:15:26;26.00;95.60
16523;DHT22;19889;52.546;13.348;2023-07-24T12:17:54;26.00;95.60
16523;DHT22;19889;52.546;13.348;2023-07-24T12:20:23;25.80;95.90
16523;DHT22;19889;52.546;13.348;2023-07-24T12:22:50;25.80;96.90
16523;DHT22;19889;52.546;13.348;2023-07-24T12:25:17;25.70;97.90
16523;DHT22;19889;52.546;13.348;2023-07-24T12:27:46;25.50;98.90
16523;DHT22;19889;52.546;13.348;2023-07-24T12:30:14;25.30;99.60
16523;DHT22;19889;52.546;13.348;2023-07-24T12:32:43;25.20;99.90
16523;DHT22;19889;52.546;13.348;2023-07-24T12:35:10;25.20;99.90
16523;DHT22;19889;52.546;13.348;2023-07-24T12:37:38;25.10;99.90
16523;DHT22;19889;52.546;13.348;2023-07-24T12:40:12;25.00;99.90
16523;DHT22;19889;52.546;13.348;2023-07-24T12:42:40;25.00;99.90
16523;DHT22;19889;52.546;13.348;2023-07-24T12:45:08;24.90;99.90
16523;DHT22;19889;52.546;13.348;2023-07-24T12:47:36;24.90;99.90
16523;DHT22;19889;52.546;13.348;2023-07-24T12:50:05;24.90;99.90
16523;DHT22;19889;52.546;13.348;2023-07-24T12:52:55;24.90;99.90
16523;DHT22;19889;52.546;13.348;2023-07-24T12:55:24;24.90;99.90
16523;DHT22;19889;52.546;13.348;2023-07-24T12:57:52;24.90;99.90
16523;DHT22;19889;52.546;13.348;2023-07-24T13:00:20;24.90;99.90
16523;DHT22;19889;52.546;13.348;2023-07-24T13:02:47;24.90;99.90
16523;DHT22;19889;52.546;13.348;2023-07-24T13:05:16;24.90;99.90
16523;DHT22;19889;52.546;13.348;2023-07-24T13:07:44;24.90;99.90
16523;DHT22;19889;52.546;13.348;2023-07-24T13:10:12;24.90;99.90
16523;DHT22;19889;52.546;13.348;2023-07-24T13:12:41;24.80;99.90
16523;DHT22;19889;52.546;13.348;2023-07-24T13:15:10;24.80;99.90
16523;DHT22;19889;52.546;13.348;2023-07-24T13:17:38;24.80;99.90
16523;DHT22;19889;52.546;13.348;2023-07-24T13:20:06;24.80;99.90
16523;DHT22;19889;52.546;13.348;2023-07-24T13:22:36;24.80;99.90
16523;DHT22;19889;52.546;13.348;2023-07-24T13:25:04;24.80;99.90
16523;DHT22;19889;52.546;13.348;2023-07-24T13:27:32;24.90;99.90
16523;DHT22;19889;52.546;13.348;2023-07-24T13:29:59;24.90;99.90
16523;DHT22;19889;52.546;13.348;2023-07-24T13:32:26;24.90;99.90
16523;DHT22;19889;52.546;13.348;2023-07-24T13:34:55;24.90;99.90
16523;DHT22;19889;52.546;13.348;2023-07-24T13:37:24;24.90;99.90
16523;DHT22;19889;52.546;13.348;2023-07-24T13:39:53;24.90;99.90
16523;DHT22;19889;52.546;13.348;2023-07-24T13:42:21;24.90;99.90
16523;DHT22;19889;52.546;13.348;2023-07-24T13:44:48;24.90;99.90
16523;DHT22;19889;52.546;13.348;2023-07-24T13:47:16;24.90;99.90
16523;DHT22;19889;52.546;13.348;2023-07-24T13:49:43;25.00;99.90
16523;DHT22;19889;52.546;13.348;2023-07-24T13:52:10;25.00;99.90
16523;DHT22;19889;52.546;13.348;2023-07-24T13:54:37;25.00;99.90
16523;DHT22;19889;52.546;13.348;2023-07-24T13:57:06;25.00;99.90
16523;DHT22;19889;52.546;13.348;2023-07-24T13:59:34;25.10;99.90
16523;DHT22;19889;52.546;13.348;2023-07-24T14:02:01;25.10;99.90
16523;DHT22;19889;52.546;13.348;2023-07-24T14:04:29;25.10;99.90
16523;DHT22;19889;52.546;13.348;2023-07-24T14:06:56;25.10;99.90
16523;DHT22;19889;52.546;13.348;2023-07-24T14:09:24;25.10;99.90
16523;DHT22;19889;52.546;13.348;2023-07-24T14:11:51;25.10;99.90
16523;DHT22;19889;52.546;13.348;2023-07-24T14:14:20;25.10;99.90
16523;DHT22;19889;52.546;13.348;2023-07-24T14:16:49;25.10;99.90
16523;DHT22;19889;52.546;13.348;2023-07-24T14:19:16;25.10;99.90
16523;DHT22;19889;52.546;13.348;2023-07-24T14:21:44;25.10;99.90
16523;DHT22;19889;52.546;13.348;2023-07-24T14:24:11;25.10;99.90
16523;DHT22;19889;52.546;13.348;2023-07-24T14:26:39;25.10;99.90
16523;DHT22;19889;52.546;13.348;2023-07-24T14:29:14;25.10;99.90
16523;DHT22;19889;52.546;13.348;2023-07-24T14:31:52;25.10;99.90
16523;DHT22;19889;52.546;13.348;2023-07-24T14:34:19;25.20;99.90
16523;DHT22;19889;52.546;13.348;2023-07-24T14:36:47;25.20;99.90
16523;DHT22;19889;52.546;13.348;2023-07-24T14:39:14;25.20;99.90
16523;DHT22;19889;52.546;13.348;2023-07-24T14:41:41;25.20;99.90
16523;DHT22;19889;52.546;13.348;2023-07-24T14:44:10;25.20;99.90
16523;DHT22;19889;52.546;13.348;2023-07-24T14:46:38;25.20;99.90
16523;DHT22;19889;52.546;13.348;2023-07-24T14:49:06;25.20;99.90
16523;DHT22;19889;52.546;13.348;2023-07-24T14:51:34;25.20;99.90
16523;DHT22;19889;52.546;13.348;2023-07-24T14:54:02;25.30;99.90
16523;DHT22;19889;52.546;13.348;2023-07-24T14:56:29;25.20;99.90
16523;DHT22;19889;52.546;13.348;2023-07-24T14:58:57;25.20;99.90
16523;DHT22;19889;52.546;13.348;2023-07-24T15:01:24;25.20;99.90
16523;DHT22;19889;52.546;13.348;2023-07-24T15:03:59;25.20;99.90
16523;DHT22;19889;52.546;13.348;2023-07-24T15:06:30;25.20;99.90
16523;DHT22;19889;52.546;13.348;2023-07-24T15:08:58;25.20;99.90
16523;DHT22;19889;52.546;13.348;2023-07-24T15:11:25;25.20;99.90
16523;DHT22;19889;52.546;13.348;2023-07-24T15:13:56;25.20;99.90
16523;DHT22;19889;52.546;13.348;2023-07-24T15:16:25;25.20;99.90
16523;DHT22;19889;52.546;13.348;2023-07-24T15:18:56;25.20;99.90
16523;DHT22;19889;52.546;13.348;2023-07-24T15:21:23;25.20;99.90
16523;DHT22;19889;52.546;13.348;2023-07-24T15:23:56;25.20;99.90
16523;DHT22;19889;52.546;13.348;2023-07-24T15:26:24;25.20;99.90
16523;DHT22;19889;52.546;13.348;2023-07-24T15:28:52;25.20;99.90
16523;DHT22;19889;52.546;13.348;2023-07-24T15:31:19;25.20;99.90
16523;DHT22;19889;52.546;13.348;2023-07-24T15:33:46;25.20;99.90